sensor_id;sensor_type;location;lat;lon;timestamp;P1;durP1;ratioP1;P2;durP2;ratioP2
80653;SDS011;70020;45.524;10.240;2023-07-16T00:01:37;13.98;;;6.57;;
80653;SDS011;70020;45.524;10.240;2023-07-16T00:04:02;12.07;;;6.00;;
80653;SDS011;70020;45.524;10.240;2023-07-16T00:06:28;12.10;;;6.07;;
80653;SDS011;70020;45.524;10.240;2023-07-16T00:08:54;15.82;;;6.40;;
80653;SDS011;70020;45.524;10.240;2023-07-16T00:11:20;11.65;;;5.53;;
80653;SDS011;70020;45.524;10.240;2023-07-16T00:13:47;14.20;;;6.78;;
80653;SDS011;70020;45.524;10.240;2023-07-16T00:16:14;15.27;;;5.65;;
80653;SDS011;70020;45.524;10.240;2023-07-16T00:18:41;8.55;;;5.97;;
80653;SDS011;70020;45.524;10.240;2023-07-16T00:21:09;8.10;;;5.20;;
80653;SDS011;70020;45.524;10.240;2023-07-16T00:23:35;10.07;;;5.65;;
80653;SDS011;70020;45.524;10.240;2023-07-16T00:26:02;12.15;;;6.20;;
80653;SDS011;70020;45.524;10.240;2023-07-16T00:28:27;14.02;;;6.07;;
80653;SDS011;70020;45.524;10.240;2023-07-16T00:30:53;10.15;;;5.68;;
80653;SDS011;70020;45.524;10.240;2023-07-16T00:33:20;10.15;;;6.90;;
80653;SDS011;70020;45.524;10.240;2023-07-16T00:35:46;12.50;;;6.00;;
80653;SDS011;70020;45.524;10.240;2023-07-16T00:38:16;11.40;;;5.85;;
80653;SDS011;70020;45.524;10.240;2023-07-16T00:40:43;10.52;;;6.60;;
80653;SDS011;70020;45.524;10.240;2023-07-16T00:43:09;11.82;;;6.43;;
80653;SDS011;70020;45.524;10.240;2023-07-16T00:45:36;14.93;;;6.25;;
80653;SDS011;70020;45.524;10.240;2023-07-16T00:48:04;8.93;;;5.80;;
80653;SDS011;70020;45.524;10.240;2023-07-16T00:50:32;12.60;;;6.90;;
80653;SDS011;70020;45.524;10.240;2023-07-16T00:53:00;15.38;;;7.22;;
80653;SDS011;70020;45.524;10.240;2023-07-16T00:55:28;12.65;;;6.45;;
80653;SDS011;70020;45.524;10.240;2023-07-16T00:57:55;8.98;;;5.63;;
80653;SDS011;70020;45.524;10.240;2023-07-16T01:00:28;11.07;;;5.93;;
80653;SDS011;70020;45.524;10.240;2023-07-16T01:02:54;10.45;;;5.75;;
80653;SDS011;70020;45.524;10.240;2023-07-16T01:05:20;11.45;;;6.35;;
80653;SDS011;70020;45.524;10.240;2023-07-16T01:07:56;8.80;;;5.68;;
80653;SDS011;70020;45.524;10.240;2023-07-16T01:10:25;13.85;;;6.65;;
80653;SDS011;70020;45.524;10.240;2023-07-16T01:12:53;13.23;;;6.93;;
80653;SDS011;70020;45.524;10.240;2023-07-16T01:15:20;13.07;;;6.78;;
80653;SDS011;70020;45.524;10.240;2023-07-16T01:17:46;10.05;;;6.07;;
80653;SDS011;70020;45.524;10.240;2023-07-16T01:20:12;13.25;;;6.75;;
80653;SDS011;70020;45.524;10.240;2023-07-16T01:25:26;11.98;;;6.70;;
80653;SDS011;70020;45.524;10.240;2023-07-16T01:31:03;12.02;;;6.68;;
80653;SDS011;70020;45.524;10.240;2023-07-16T01:33:30;9.23;;;5.88;;
80653;SDS011;70020;45.524;10.240;2023-07-16T01:35:57;11.65;;;5.75;;
80653;SDS011;70020;45.524;10.240;2023-07-16T01:38:24;8.95;;;5.28;;
80653;SDS011;70020;45.524;10.240;2023-07-16T01:40:50;9.18;;;6.28;;
80653;SDS011;70020;45.524;10.240;2023-07-16T01:43:16;11.27;;;6.10;;
80653;SDS011;70020;45.524;10.240;2023-07-16T01:45:42;13.52;;;6.28;;
80653;SDS011;70020;45.524;10.240;2023-07-16T01:50:48;11.10;;;6.78;;
80653;SDS011;70020;45.524;10.240;2023-07-16T01:53:14;11.82;;;6.45;;
80653;SDS011;70020;45.524;10.240;2023-07-16T01:55:41;11.70;;;6.32;;
80653;SDS011;70020;45.524;10.240;2023-07-16T01:58:07;13.45;;;6.78;;
80653;SDS011;70020;45.524;10.240;2023-07-16T02:00:33;12.73;;;6.40;;
80653;SDS011;70020;45.524;10.240;2023-07-16T02:02:59;11.98;;;6.60;;
80653;SDS011;70020;45.524;10.240;2023-07-16T02:05:25;9.30;;;5.97;;
80653;SDS011;70020;45.524;10.240;2023-07-16T02:07:52;9.68;;;5.80;;
80653;SDS011;70020;45.524;10.240;2023-07-16T02:10:17;10.75;;;6.75;;
80653;SDS011;70020;45.524;10.240;2023-07-16T02:12:43;10.18;;;6.72;;
80653;SDS011;70020;45.524;10.240;2023-07-16T02:15:09;12.50;;;6.95;;
80653;SDS011;70020;45.524;10.240;2023-07-16T02:17:36;12.25;;;6.80;;
80653;SDS011;70020;45.524;10.240;2023-07-16T02:20:01;12.05;;;6.32;;
80653;SDS011;70020;45.524;10.240;2023-07-16T02:22:30;13.50;;;6.20;;
80653;SDS011;70020;45.524;10.240;2023-07-16T02:24:56;8.38;;;6.20;;
80653;SDS011;70020;45.524;10.240;2023-07-16T02:27:22;10.15;;;7.13;;
80653;SDS011;70020;45.524;10.240;2023-07-16T02:29:48;10.93;;;6.45;;
80653;SDS011;70020;45.524;10.240;2023-07-16T02:32:14;11.55;;;6.55;;
80653;SDS011;70020;45.524;10.240;2023-07-16T02:34:40;13.05;;;6.72;;
80653;SDS011;70020;45.524;10.240;2023-07-16T02:37:06;12.73;;;7.47;;
80653;SDS011;70020;45.524;10.240;2023-07-16T02:39:32;14.30;;;7.30;;
80653;SDS011;70020;45.524;10.240;2023-07-16T02:41:58;10.68;;;6.45;;
80653;SDS011;70020;45.524;10.240;2023-07-16T02:44:24;9.73;;;6.22;;
80653;SDS011;70020;45.524;10.240;2023-07-16T02:46:50;9.73;;;6.47;;
80653;SDS011;70020;45.524;10.240;2023-07-16T02:49:16;12.75;;;6.63;;
80653;SDS011;70020;45.524;10.240;2023-07-16T02:51:42;10.77;;;6.35;;
80653;SDS011;70020;45.524;10.240;2023-07-16T02:54:08;11.93;;;6.53;;
80653;SDS011;70020;45.524;10.240;2023-07-16T02:56:34;12.48;;;7.07;;
80653;SDS011;70020;45.524;10.240;2023-07-16T02:59:00;8.23;;;6.35;;
80653;SDS011;70020;45.524;10.240;2023-07-16T03:01:26;8.80;;;6.35;;
80653;SDS011;70020;45.524;10.240;2023-07-16T03:03:52;13.90;;;6.90;;
80653;SDS011;70020;45.524;10.240;2023-07-16T03:06:18;12.45;;;6.47;;
80653;SDS011;70020;45.524;10.240;2023-07-16T03:08:44;12.43;;;6.28;;
80653;SDS011;70020;45.524;10.240;2023-07-16T03:11:10;15.57;;;7.07;;
80653;SDS011;70020;45.524;10.240;2023-07-16T03:13:36;10.88;;;6.55;;
80653;SDS011;70020;45.524;10.240;2023-07-16T03:16:02;8.90;;;6.03;;
80653;SDS011;70020;45.524;10.240;2023-07-16T03:18:29;12.27;;;6.68;;
80653;SDS011;70020;45.524;10.240;2023-07-16T03:20:55;8.25;;;5.60;;
80653;SDS011;70020;45.524;10.240;2023-07-16T03:23:22;9.38;;;5.85;;
80653;SDS011;70020;45.524;10.240;2023-07-16T03:25:48;14.55;;;6.78;;
80653;SDS011;70020;45.524;10.240;2023-07-16T03:28:14;11.48;;;6.65;;
80653;SDS011;70020;45.524;10.240;2023-07-16T03:30:40;11.75;;;7.38;;
80653;SDS011;70020;45.524;10.240;2023-07-16T03:33:05;11.23;;;6.65;;
80653;SDS011;70020;45.524;10.240;2023-07-16T03:35:31;9.77;;;6.47;;
80653;SDS011;70020;45.524;10.240;2023-07-16T03:37:58;12.25;;;6.78;;
80653;SDS011;70020;45.524;10.240;2023-07-16T03:40:25;10.13;;;6.40;;
80653;SDS011;70020;45.524;10.240;2023-07-16T03:42:52;12.27;;;6.88;;
80653;SDS011;70020;45.524;10.240;2023-07-16T03:45:18;10.75;;;7.22;;
80653;SDS011;70020;45.524;10.240;2023-07-16T03:47:45;11.93;;;6.50;;
80653;SDS011;70020;45.524;10.240;2023-07-16T03:50:11;11.80;;;7.15;;
80653;SDS011;70020;45.524;10.240;2023-07-16T03:52:36;15.15;;;7.25;;
80653;SDS011;70020;45.524;10.240;2023-07-16T03:55:02;10.10;;;6.50;;
80653;SDS011;70020;45.524;10.240;2023-07-16T03:57:29;12.27;;;6.32;;
80653;SDS011;70020;45.524;10.240;2023-07-16T03:59:55;16.25;;;6.38;;
80653;SDS011;70020;45.524;10.240;2023-07-16T04:02:20;11.57;;;6.68;;
80653;SDS011;70020;45.524;10.240;2023-07-16T04:04:46;10.55;;;5.90;;
80653;SDS011;70020;45.524;10.240;2023-07-16T04:07:12;10.77;;;5.90;;
80653;SDS011;70020;45.524;10.240;2023-07-16T04:09:38;9.13;;;6.15;;
80653;SDS011;70020;45.524;10.240;2023-07-16T04:12:05;10.30;;;6.10;;
80653;SDS011;70020;45.524;10.240;2023-07-16T04:14:31;11.23;;;6.40;;
80653;SDS011;70020;45.524;10.240;2023-07-16T04:16:57;10.68;;;6.53;;
80653;SDS011;70020;45.524;10.240;2023-07-16T04:19:23;14.63;;;7.28;;
80653;SDS011;70020;45.524;10.240;2023-07-16T04:21:49;13.18;;;7.63;;
80653;SDS011;70020;45.524;10.240;2023-07-16T04:24:15;10.43;;;6.68;;
80653;SDS011;70020;45.524;10.240;2023-07-16T04:26:41;13.52;;;6.97;;
80653;SDS011;70020;45.524;10.240;2023-07-16T04:29:07;11.90;;;6.30;;
80653;SDS011;70020;45.524;10.240;2023-07-16T04:31:33;12.27;;;6.00;;
80653;SDS011;70020;45.524;10.240;2023-07-16T04:34:00;9.48;;;5.68;;
80653;SDS011;70020;45.524;10.240;2023-07-16T04:36:26;12.23;;;6.70;;
80653;SDS011;70020;45.524;10.240;2023-07-16T04:38:53;12.82;;;6.30;;
80653;SDS011;70020;45.524;10.240;2023-07-16T04:41:19;11.80;;;7.60;;
80653;SDS011;70020;45.524;10.240;2023-07-16T04:43:44;12.25;;;6.15;;
80653;SDS011;70020;45.524;10.240;2023-07-16T04:46:10;10.98;;;6.30;;
80653;SDS011;70020;45.524;10.240;2023-07-16T04:48:37;10.15;;;7.07;;
80653;SDS011;70020;45.524;10.240;2023-07-16T04:51:02;11.30;;;6.38;;
80653;SDS011;70020;45.524;10.240;2023-07-16T04:53:28;11.85;;;6.45;;
80653;SDS011;70020;45.524;10.240;2023-07-16T04:55:55;13.27;;;6.78;;
80653;SDS011;70020;45.524;10.240;2023-07-16T04:58:22;9.98;;;6.25;;
80653;SDS011;70020;45.524;10.240;2023-07-16T05:00:47;7.50;;;5.90;;
80653;SDS011;70020;45.524;10.240;2023-07-16T05:03:13;11.52;;;6.93;;
80653;SDS011;70020;45.524;10.240;2023-07-16T05:05:39;9.35;;;6.28;;
80653;SDS011;70020;45.524;10.240;2023-07-16T05:08:06;10.77;;;6.85;;
80653;SDS011;70020;45.524;10.240;2023-07-16T05:10:31;12.60;;;6.55;;
80653;SDS011;70020;45.524;10.240;2023-07-16T05:12:58;11.85;;;6.47;;
80653;SDS011;70020;45.524;10.240;2023-07-16T05:15:24;10.75;;;6.78;;
80653;SDS011;70020;45.524;10.240;2023-07-16T05:17:50;9.32;;;5.93;;
80653;SDS011;70020;45.524;10.240;2023-07-16T05:20:15;8.73;;;5.75;;
80653;SDS011;70020;45.524;10.240;2023-07-16T05:22:41;11.23;;;6.03;;
80653;SDS011;70020;45.524;10.240;2023-07-16T05:25:08;11.38;;;6.40;;
80653;SDS011;70020;45.524;10.240;2023-07-16T05:27:35;8.50;;;6.20;;
80653;SDS011;70020;45.524;10.240;2023-07-16T05:30:01;9.80;;;6.47;;
80653;SDS011;70020;45.524;10.240;2023-07-16T05:32:27;9.65;;;6.03;;
80653;SDS011;70020;45.524;10.240;2023-07-16T05:34:53;9.90;;;6.00;;
80653;SDS011;70020;45.524;10.240;2023-07-16T05:37:19;11.48;;;6.90;;
80653;SDS011;70020;45.524;10.240;2023-07-16T05:39:45;11.32;;;6.50;;
80653;SDS011;70020;45.524;10.240;2023-07-16T05:42:11;10.73;;;6.75;;
80653;SDS011;70020;45.524;10.240;2023-07-16T05:44:37;10.75;;;6.03;;
80653;SDS011;70020;45.524;10.240;2023-07-16T05:47:03;9.60;;;6.35;;
80653;SDS011;70020;45.524;10.240;2023-07-16T05:49:29;12.52;;;5.97;;
80653;SDS011;70020;45.524;10.240;2023-07-16T05:51:56;11.07;;;6.70;;
80653;SDS011;70020;45.524;10.240;2023-07-16T05:54:22;9.35;;;6.78;;
80653;SDS011;70020;45.524;10.240;2023-07-16T05:56:48;10.55;;;6.60;;
80653;SDS011;70020;45.524;10.240;2023-07-16T05:59:15;9.18;;;6.53;;
80653;SDS011;70020;45.524;10.240;2023-07-16T06:01:41;13.18;;;6.30;;
80653;SDS011;70020;45.524;10.240;2023-07-16T06:04:07;14.68;;;6.03;;
80653;SDS011;70020;45.524;10.240;2023-07-16T06:06:33;11.25;;;5.97;;
80653;SDS011;70020;45.524;10.240;2023-07-16T06:08:59;11.80;;;5.55;;
80653;SDS011;70020;45.524;10.240;2023-07-16T06:11:25;12.48;;;5.82;;
80653;SDS011;70020;45.524;10.240;2023-07-16T06:13:54;13.40;;;5.90;;
80653;SDS011;70020;45.524;10.240;2023-07-16T06:16:20;12.27;;;6.28;;
80653;SDS011;70020;45.524;10.240;2023-07-16T06:18:46;11.75;;;6.50;;
80653;SDS011;70020;45.524;10.240;2023-07-16T06:21:11;14.27;;;5.90;;
80653;SDS011;70020;45.524;10.240;2023-07-16T06:23:38;12.82;;;6.28;;
80653;SDS011;70020;45.524;10.240;2023-07-16T06:26:04;11.55;;;5.85;;
80653;SDS011;70020;45.524;10.240;2023-07-16T06:28:29;9.35;;;6.28;;
80653;SDS011;70020;45.524;10.240;2023-07-16T06:30:55;11.90;;;6.28;;
80653;SDS011;70020;45.524;10.240;2023-07-16T06:33:21;17.80;;;6.15;;
80653;SDS011;70020;45.524;10.240;2023-07-16T06:35:47;11.88;;;5.93;;
80653;SDS011;70020;45.524;10.240;2023-07-16T06:38:16;12.73;;;6.53;;
80653;SDS011;70020;45.524;10.240;2023-07-16T06:40:48;16.30;;;6.28;;
80653;SDS011;70020;45.524;10.240;2023-07-16T06:43:15;13.15;;;6.22;;
80653;SDS011;70020;45.524;10.240;2023-07-16T06:45:42;13.70;;;7.22;;
80653;SDS011;70020;45.524;10.240;2023-07-16T06:48:08;16.80;;;7.05;;
80653;SDS011;70020;45.524;10.240;2023-07-16T06:50:33;13.35;;;6.90;;
80653;SDS011;70020;45.524;10.240;2023-07-16T06:52:59;14.07;;;6.65;;
80653;SDS011;70020;45.524;10.240;2023-07-16T06:55:25;22.95;;;8.68;;
80653;SDS011;70020;45.524;10.240;2023-07-16T06:57:51;14.75;;;7.45;;
80653;SDS011;70020;45.524;10.240;2023-07-16T07:00:16;16.67;;;7.15;;
80653;SDS011;70020;45.524;10.240;2023-07-16T07:02:43;15.88;;;7.15;;
80653;SDS011;70020;45.524;10.240;2023-07-16T07:05:09;20.50;;;7.93;;
80653;SDS011;70020;45.524;10.240;2023-07-16T07:07:34;18.23;;;7.65;;
80653;SDS011;70020;45.524;10.240;2023-07-16T07:10:00;19.35;;;7.85;;
80653;SDS011;70020;45.524;10.240;2023-07-16T07:12:26;22.63;;;7.70;;
80653;SDS011;70020;45.524;10.240;2023-07-16T07:14:52;19.40;;;7.90;;
80653;SDS011;70020;45.524;10.240;2023-07-16T07:17:18;15.13;;;6.90;;
80653;SDS011;70020;45.524;10.240;2023-07-16T07:19:44;14.93;;;7.20;;
80653;SDS011;70020;45.524;10.240;2023-07-16T07:22:10;12.73;;;6.70;;
80653;SDS011;70020;45.524;10.240;2023-07-16T07:24:36;13.75;;;6.95;;
80653;SDS011;70020;45.524;10.240;2023-07-16T07:27:02;16.52;;;6.38;;
80653;SDS011;70020;45.524;10.240;2023-07-16T07:29:28;10.60;;;6.70;;
80653;SDS011;70020;45.524;10.240;2023-07-16T07:31:53;14.20;;;6.85;;
80653;SDS011;70020;45.524;10.240;2023-07-16T07:34:19;12.02;;;6.05;;
80653;SDS011;70020;45.524;10.240;2023-07-16T07:36:45;13.25;;;6.57;;
80653;SDS011;70020;45.524;10.240;2023-07-16T07:39:11;15.60;;;6.85;;
80653;SDS011;70020;45.524;10.240;2023-07-16T07:41:38;14.80;;;6.35;;
80653;SDS011;70020;45.524;10.240;2023-07-16T07:44:04;16.65;;;7.28;;
80653;SDS011;70020;45.524;10.240;2023-07-16T07:46:30;16.50;;;7.13;;
80653;SDS011;70020;45.524;10.240;2023-07-16T07:48:55;12.85;;;6.93;;
80653;SDS011;70020;45.524;10.240;2023-07-16T07:51:21;13.63;;;6.85;;
80653;SDS011;70020;45.524;10.240;2023-07-16T07:53:48;16.70;;;6.43;;
80653;SDS011;70020;45.524;10.240;2023-07-16T07:56:14;12.65;;;6.72;;
80653;SDS011;70020;45.524;10.240;2023-07-16T07:58:40;13.98;;;7.07;;
80653;SDS011;70020;45.524;10.240;2023-07-16T08:01:05;14.70;;;7.03;;
80653;SDS011;70020;45.524;10.240;2023-07-16T08:03:31;10.20;;;6.43;;
80653;SDS011;70020;45.524;10.240;2023-07-16T08:05:57;12.27;;;7.30;;
80653;SDS011;70020;45.524;10.240;2023-07-16T08:08:23;16.40;;;7.40;;
80653;SDS011;70020;45.524;10.240;2023-07-16T08:10:50;11.95;;;7.05;;
80653;SDS011;70020;45.524;10.240;2023-07-16T08:13:15;15.25;;;6.57;;
80653;SDS011;70020;45.524;10.240;2023-07-16T08:15:41;19.90;;;7.03;;
80653;SDS011;70020;45.524;10.240;2023-07-16T08:18:07;14.55;;;6.82;;
80653;SDS011;70020;45.524;10.240;2023-07-16T08:20:37;14.07;;;7.40;;
80653;SDS011;70020;45.524;10.240;2023-07-16T08:23:03;13.90;;;7.13;;
80653;SDS011;70020;45.524;10.240;2023-07-16T08:25:29;9.65;;;6.53;;
80653;SDS011;70020;45.524;10.240;2023-07-16T08:27:55;14.95;;;7.65;;
80653;SDS011;70020;45.524;10.240;2023-07-16T08:30:21;12.38;;;7.22;;
80653;SDS011;70020;45.524;10.240;2023-07-16T08:32:47;12.80;;;6.88;;
80653;SDS011;70020;45.524;10.240;2023-07-16T08:35:15;12.35;;;7.50;;
80653;SDS011;70020;45.524;10.240;2023-07-16T08:37:42;11.07;;;7.25;;
80653;SDS011;70020;45.524;10.240;2023-07-16T08:40:08;14.93;;;9.35;;
80653;SDS011;70020;45.524;10.240;2023-07-16T08:42:36;14.82;;;7.35;;
80653;SDS011;70020;45.524;10.240;2023-07-16T08:45:05;12.73;;;6.60;;
80653;SDS011;70020;45.524;10.240;2023-07-16T08:47:33;13.35;;;6.40;;
80653;SDS011;70020;45.524;10.240;2023-07-16T08:50:00;13.35;;;6.55;;
80653;SDS011;70020;45.524;10.240;2023-07-16T08:52:27;12.32;;;7.05;;
80653;SDS011;70020;45.524;10.240;2023-07-16T08:54:53;9.80;;;6.57;;
80653;SDS011;70020;45.524;10.240;2023-07-16T08:57:19;11.65;;;7.05;;
80653;SDS011;70020;45.524;10.240;2023-07-16T08:59:49;10.52;;;6.97;;
80653;SDS011;70020;45.524;10.240;2023-07-16T09:02:17;12.98;;;6.53;;
80653;SDS011;70020;45.524;10.240;2023-07-16T09:04:43;10.00;;;6.63;;
80653;SDS011;70020;45.524;10.240;2023-07-16T09:07:09;11.10;;;6.20;;
80653;SDS011;70020;45.524;10.240;2023-07-16T09:09:35;12.45;;;6.55;;
80653;SDS011;70020;45.524;10.240;2023-07-16T09:12:01;11.10;;;6.00;;
80653;SDS011;70020;45.524;10.240;2023-07-16T09:14:27;12.05;;;6.95;;
80653;SDS011;70020;45.524;10.240;2023-07-16T09:16:53;9.45;;;6.20;;
80653;SDS011;70020;45.524;10.240;2023-07-16T09:19:20;10.73;;;6.53;;
80653;SDS011;70020;45.524;10.240;2023-07-16T09:21:49;13.95;;;6.72;;
80653;SDS011;70020;45.524;10.240;2023-07-16T09:24:17;11.05;;;6.57;;
80653;SDS011;70020;45.524;10.240;2023-07-16T09:26:47;13.65;;;6.28;;
80653;SDS011;70020;45.524;10.240;2023-07-16T09:29:14;12.48;;;7.13;;
80653;SDS011;70020;45.524;10.240;2023-07-16T09:34:19;11.02;;;7.20;;
80653;SDS011;70020;45.524;10.240;2023-07-16T09:36:46;10.68;;;6.80;;
80653;SDS011;70020;45.524;10.240;2023-07-16T09:39:15;13.02;;;6.88;;
80653;SDS011;70020;45.524;10.240;2023-07-16T09:41:42;11.60;;;6.55;;
80653;SDS011;70020;45.524;10.240;2023-07-16T09:44:08;15.65;;;6.68;;
80653;SDS011;70020;45.524;10.240;2023-07-16T09:46:34;12.27;;;6.60;;
80653;SDS011;70020;45.524;10.240;2023-07-16T09:49:00;13.25;;;6.45;;
80653;SDS011;70020;45.524;10.240;2023-07-16T09:51:26;10.38;;;6.10;;
80653;SDS011;70020;45.524;10.240;2023-07-16T09:53:55;11.07;;;6.22;;
80653;SDS011;70020;45.524;10.240;2023-07-16T09:56:22;12.07;;;5.88;;
80653;SDS011;70020;45.524;10.240;2023-07-16T09:58:54;12.10;;;6.32;;
80653;SDS011;70020;45.524;10.240;2023-07-16T10:04:20;12.85;;;6.35;;
80653;SDS011;70020;45.524;10.240;2023-07-16T10:06:55;10.02;;;5.60;;
80653;SDS011;70020;45.524;10.240;2023-07-16T10:09:50;9.68;;;6.20;;
80653;SDS011;70020;45.524;10.240;2023-07-16T10:12:19;9.80;;;6.45;;
80653;SDS011;70020;45.524;10.240;2023-07-16T10:14:52;12.75;;;6.15;;
80653;SDS011;70020;45.524;10.240;2023-07-16T10:17:22;10.20;;;5.20;;
80653;SDS011;70020;45.524;10.240;2023-07-16T10:20:10;14.90;;;8.77;;
80653;SDS011;70020;45.524;10.240;2023-07-16T10:22:43;8.65;;;5.20;;
80653;SDS011;70020;45.524;10.240;2023-07-16T10:27:44;8.40;;;5.10;;
80653;SDS011;70020;45.524;10.240;2023-07-16T10:30:14;6.85;;;4.40;;
80653;SDS011;70020;45.524;10.240;2023-07-16T10:32:40;9.73;;;5.47;;
80653;SDS011;70020;45.524;10.240;2023-07-16T10:35:06;9.55;;;4.80;;
80653;SDS011;70020;45.524;10.240;2023-07-16T10:37:33;8.10;;;5.60;;
80653;SDS011;70020;45.524;10.240;2023-07-16T10:40:00;15.30;;;7.22;;
80653;SDS011;70020;45.524;10.240;2023-07-16T10:42:28;9.00;;;5.50;;
80653;SDS011;70020;45.524;10.240;2023-07-16T10:44:57;10.85;;;5.43;;
80653;SDS011;70020;45.524;10.240;2023-07-16T10:49:57;10.55;;;5.18;;
80653;SDS011;70020;45.524;10.240;2023-07-16T10:52:23;14.27;;;5.45;;
80653;SDS011;70020;45.524;10.240;2023-07-16T10:54:50;12.50;;;5.65;;
80653;SDS011;70020;45.524;10.240;2023-07-16T10:57:19;11.02;;;5.55;;
80653;SDS011;70020;45.524;10.240;2023-07-16T10:59:48;15.68;;;6.32;;
80653;SDS011;70020;45.524;10.240;2023-07-16T11:02:15;11.00;;;5.25;;
80653;SDS011;70020;45.524;10.240;2023-07-16T11:04:42;14.95;;;6.32;;
80653;SDS011;70020;45.524;10.240;2023-07-16T11:07:12;13.20;;;6.28;;
80653;SDS011;70020;45.524;10.240;2023-07-16T11:09:49;13.32;;;6.10;;
80653;SDS011;70020;45.524;10.240;2023-07-16T11:12:21;14.10;;;5.80;;
80653;SDS011;70020;45.524;10.240;2023-07-16T11:14:51;12.07;;;6.05;;
80653;SDS011;70020;45.524;10.240;2023-07-16T11:17:19;10.68;;;6.22;;
80653;SDS011;70020;45.524;10.240;2023-07-16T11:19:46;11.35;;;6.22;;
80653;SDS011;70020;45.524;10.240;2023-07-16T11:22:14;13.05;;;5.80;;
80653;SDS011;70020;45.524;10.240;2023-07-16T11:27:13;12.93;;;6.05;;
80653;SDS011;70020;45.524;10.240;2023-07-16T11:29:47;9.52;;;5.47;;
80653;SDS011;70020;45.524;10.240;2023-07-16T11:32:25;8.85;;;5.65;;
80653;SDS011;70020;45.524;10.240;2023-07-16T11:35:18;13.73;;;5.40;;
80653;SDS011;70020;45.524;10.240;2023-07-16T11:37:45;10.35;;;5.20;;
80653;SDS011;70020;45.524;10.240;2023-07-16T11:40:18;12.25;;;5.10;;
80653;SDS011;70020;45.524;10.240;2023-07-16T11:42:45;10.38;;;4.63;;
80653;SDS011;70020;45.524;10.240;2023-07-16T11:47:51;11.20;;;5.60;;
80653;SDS011;70020;45.524;10.240;2023-07-16T11:50:17;14.52;;;5.00;;
80653;SDS011;70020;45.524;10.240;2023-07-16T11:52:51;10.40;;;5.65;;
80653;SDS011;70020;45.524;10.240;2023-07-16T11:55:18;9.05;;;4.88;;
80653;SDS011;70020;45.524;10.240;2023-07-16T11:57:44;12.73;;;4.53;;
80653;SDS011;70020;45.524;10.240;2023-07-16T12:00:10;11.82;;;4.82;;
80653;SDS011;70020;45.524;10.240;2023-07-16T12:02:36;11.82;;;4.72;;
80653;SDS011;70020;45.524;10.240;2023-07-16T12:05:02;10.70;;;4.65;;
80653;SDS011;70020;45.524;10.240;2023-07-16T12:07:32;13.60;;;5.15;;
80653;SDS011;70020;45.524;10.240;2023-07-16T12:10:01;10.38;;;4.60;;
80653;SDS011;70020;45.524;10.240;2023-07-16T12:12:28;8.80;;;4.50;;
80653;SDS011;70020;45.524;10.240;2023-07-16T12:14:54;9.70;;;4.25;;
80653;SDS011;70020;45.524;10.240;2023-07-16T12:17:20;10.52;;;4.43;;
80653;SDS011;70020;45.524;10.240;2023-07-16T12:19:46;12.68;;;4.63;;
80653;SDS011;70020;45.524;10.240;2023-07-16T12:22:12;7.78;;;3.97;;
80653;SDS011;70020;45.524;10.240;2023-07-16T12:24:39;15.02;;;4.95;;
80653;SDS011;70020;45.524;10.240;2023-07-16T12:27:05;6.55;;;4.55;;
80653;SDS011;70020;45.524;10.240;2023-07-16T12:29:32;10.60;;;4.80;;
80653;SDS011;70020;45.524;10.240;2023-07-16T12:31:59;9.52;;;4.82;;
80653;SDS011;70020;45.524;10.240;2023-07-16T12:34:25;8.07;;;4.60;;
80653;SDS011;70020;45.524;10.240;2023-07-16T12:36:51;10.98;;;4.63;;
80653;SDS011;70020;45.524;10.240;2023-07-16T12:39:16;12.18;;;4.70;;
80653;SDS011;70020;45.524;10.240;2023-07-16T12:41:43;9.25;;;4.55;;
80653;SDS011;70020;45.524;10.240;2023-07-16T12:44:09;13.70;;;5.18;;
80653;SDS011;70020;45.524;10.240;2023-07-16T12:46:34;13.63;;;5.68;;
80653;SDS011;70020;45.524;10.240;2023-07-16T12:49:00;8.70;;;4.68;;
80653;SDS011;70020;45.524;10.240;2023-07-16T12:51:27;15.00;;;4.85;;
80653;SDS011;70020;45.524;10.240;2023-07-16T12:53:52;9.98;;;4.45;;
80653;SDS011;70020;45.524;10.240;2023-07-16T12:56:19;13.00;;;4.90;;
80653;SDS011;70020;45.524;10.240;2023-07-16T12:58:45;10.65;;;4.93;;
80653;SDS011;70020;45.524;10.240;2023-07-16T13:01:12;12.55;;;4.88;;
80653;SDS011;70020;45.524;10.240;2023-07-16T13:03:38;12.30;;;5.03;;
80653;SDS011;70020;45.524;10.240;2023-07-16T13:06:03;10.75;;;5.20;;
80653;SDS011;70020;45.524;10.240;2023-07-16T13:08:29;12.20;;;4.60;;
80653;SDS011;70020;45.524;10.240;2023-07-16T13:10:55;12.27;;;5.50;;
80653;SDS011;70020;45.524;10.240;2023-07-16T13:13:21;10.95;;;5.45;;
80653;SDS011;70020;45.524;10.240;2023-07-16T13:15:47;10.98;;;5.10;;
80653;SDS011;70020;45.524;10.240;2023-07-16T13:18:13;10.38;;;4.95;;
80653;SDS011;70020;45.524;10.240;2023-07-16T13:20:39;10.80;;;5.40;;
80653;SDS011;70020;45.524;10.240;2023-07-16T13:23:04;15.15;;;5.50;;
80653;SDS011;70020;45.524;10.240;2023-07-16T13:25:30;10.20;;;5.32;;
80653;SDS011;70020;45.524;10.240;2023-07-16T13:27:56;8.52;;;4.80;;
80653;SDS011;70020;45.524;10.240;2023-07-16T13:30:22;8.77;;;5.25;;
80653;SDS011;70020;45.524;10.240;2023-07-16T13:32:48;10.13;;;5.28;;
80653;SDS011;70020;45.524;10.240;2023-07-16T13:35:17;9.48;;;4.65;;
80653;SDS011;70020;45.524;10.240;2023-07-16T13:37:43;10.70;;;5.05;;
80653;SDS011;70020;45.524;10.240;2023-07-16T13:40:08;9.20;;;5.53;;
80653;SDS011;70020;45.524;10.240;2023-07-16T13:42:35;10.52;;;5.72;;
80653;SDS011;70020;45.524;10.240;2023-07-16T13:45:00;10.52;;;5.45;;
80653;SDS011;70020;45.524;10.240;2023-07-16T13:47:25;14.38;;;5.50;;
80653;SDS011;70020;45.524;10.240;2023-07-16T13:49:51;11.80;;;5.20;;
80653;SDS011;70020;45.524;10.240;2023-07-16T13:52:17;8.85;;;4.68;;
80653;SDS011;70020;45.524;10.240;2023-07-16T13:54:43;12.15;;;4.88;;
80653;SDS011;70020;45.524;10.240;2023-07-16T13:57:09;9.32;;;5.13;;
80653;SDS011;70020;45.524;10.240;2023-07-16T13:59:34;11.68;;;5.38;;
80653;SDS011;70020;45.524;10.240;2023-07-16T14:02:01;9.00;;;4.75;;
80653;SDS011;70020;45.524;10.240;2023-07-16T14:04:28;10.95;;;4.93;;
80653;SDS011;70020;45.524;10.240;2023-07-16T14:06:54;10.50;;;4.95;;
80653;SDS011;70020;45.524;10.240;2023-07-16T14:09:20;8.45;;;4.68;;
80653;SDS011;70020;45.524;10.240;2023-07-16T14:11:46;8.65;;;4.80;;
80653;SDS011;70020;45.524;10.240;2023-07-16T14:14:16;11.15;;;5.32;;
80653;SDS011;70020;45.524;10.240;2023-07-16T14:16:46;15.98;;;5.10;;
80653;SDS011;70020;45.524;10.240;2023-07-16T14:19:12;10.65;;;5.53;;
80653;SDS011;70020;45.524;10.240;2023-07-16T14:21:38;13.07;;;4.97;;
80653;SDS011;70020;45.524;10.240;2023-07-16T14:24:04;12.63;;;4.78;;
80653;SDS011;70020;45.524;10.240;2023-07-16T14:26:30;13.35;;;4.93;;
80653;SDS011;70020;45.524;10.240;2023-07-16T14:28:56;13.18;;;4.80;;
80653;SDS011;70020;45.524;10.240;2023-07-16T14:31:22;10.50;;;4.90;;
80653;SDS011;70020;45.524;10.240;2023-07-16T14:33:47;10.13;;;4.75;;
80653;SDS011;70020;45.524;10.240;2023-07-16T14:36:13;11.10;;;4.80;;
80653;SDS011;70020;45.524;10.240;2023-07-16T14:38:39;13.32;;;5.40;;
80653;SDS011;70020;45.524;10.240;2023-07-16T14:41:05;9.50;;;4.85;;
80653;SDS011;70020;45.524;10.240;2023-07-16T14:43:32;13.23;;;5.00;;
80653;SDS011;70020;45.524;10.240;2023-07-16T14:45:58;11.38;;;4.85;;